createdAt,value
2022-08-10T00:00:24.113Z,21.08
2022-08-10T00:02:29.171Z,21.05
2022-08-10T00:04:33.954Z,21.03
2022-08-10T00:06:38.959Z,21.00
2022-08-10T00:08:43.742Z,21.00
2022-08-10T00:10:48.575Z,20.99
2022-08-10T00:12:55.229Z,20.97
2022-08-10T00:15:00.423Z,20.95
2022-08-10T00:17:05.313Z,20.92
2022-08-10T00:19:10.036Z,20.89
2022-08-10T00:21:14.890Z,20.85
2022-08-10T00:23:19.728Z,20.85
2022-08-10T00:25:24.464Z,20.84
2022-08-10T00:27:53.058Z,20.83
2022-08-10T00:29:55.020Z,20.82
2022-08-10T00:31:59.867Z,20.78
2022-08-10T00:34:04.656Z,20.78
2022-08-10T00:36:10.069Z,20.77
2022-08-10T00:38:17.714Z,20.77
2022-08-10T00:40:37.363Z,20.76
2022-08-10T00:42:42.775Z,20.75
2022-08-10T00:44:49.207Z,20.72
2022-08-10T00:46:54.048Z,20.70
2022-08-10T00:49:00.474Z,20.69
2022-08-10T00:51:06.022Z,20.67
2022-08-10T00:53:10.870Z,20.67
2022-08-10T00:55:16.234Z,20.66
2022-08-10T00:57:21.670Z,20.64
2022-08-10T00:59:26.626Z,20.63
2022-08-10T01:02:09.524Z,20.61
2022-08-10T01:04:36.615Z,20.58
2022-08-10T01:06:32.010Z,20.57
2022-08-10T01:08:44.256Z,20.55
2022-08-10T01:10:56.994Z,20.56
2022-08-10T01:13:09.811Z,20.53
2022-08-10T01:15:22.415Z,20.54
2022-08-10T01:17:50.693Z,20.53
2022-08-10T01:20:02.395Z,20.49
2022-08-10T01:22:27.315Z,20.47
2022-08-10T01:25:03.695Z,20.47
2022-08-10T01:27:26.941Z,20.44
2022-08-10T01:30:02.100Z,20.43
2022-08-10T01:32:10.334Z,20.39
2022-08-10T01:34:20.742Z,20.38
2022-08-10T01:36:32.167Z,20.36
2022-08-10T01:38:42.332Z,20.35
2022-08-10T01:40:53.673Z,20.33
2022-08-10T01:43:08.443Z,20.32
2022-08-10T01:45:16.060Z,20.30
2022-08-10T01:47:24.031Z,20.27
2022-08-10T01:49:31.000Z,20.22
2022-08-10T01:51:40.512Z,20.18
2022-08-10T01:53:50.298Z,20.13
2022-08-10T01:55:57.222Z,20.10
2022-08-10T01:58:05.792Z,20.07
2022-08-10T02:00:12.907Z,20.01
2022-08-10T02:02:20.440Z,19.97
2022-08-10T02:04:31.397Z,19.94
2022-08-10T02:06:42.309Z,19.91
2022-08-10T02:08:49.883Z,19.86
2022-08-10T02:11:12.106Z,19.82
2022-08-10T02:13:19.567Z,19.83
2022-08-10T02:15:27.869Z,19.83
2022-08-10T02:17:59.654Z,19.82
2022-08-10T02:20:05.895Z,19.80
2022-08-10T02:22:45.697Z,19.79
2022-08-10T02:24:39.086Z,19.80
2022-08-10T02:26:45.862Z,19.80
2022-08-10T02:28:52.289Z,19.81
2022-08-10T02:31:01.005Z,19.81
2022-08-10T02:33:08.296Z,19.83
2022-08-10T02:35:22.358Z,19.82
2022-08-10T02:37:29.716Z,19.81
2022-08-10T02:39:36.427Z,19.80
2022-08-10T02:45:03.529Z,19.80
2022-08-10T02:45:20.854Z,19.76
2022-08-10T02:46:55.927Z,19.68
2022-08-10T02:49:04.171Z,19.60
2022-08-10T02:51:15.776Z,19.53
2022-08-10T02:53:55.447Z,19.45
2022-08-10T02:55:57.705Z,19.37
2022-08-10T02:58:13.900Z,19.31
2022-08-10T03:00:23.949Z,19.24
2022-08-10T03:02:34.476Z,19.19
2022-08-10T03:04:56.097Z,19.14
2022-08-10T03:07:06.083Z,19.10
2022-08-10T03:09:15.259Z,19.06
2022-08-10T03:12:35.747Z,19.06
2022-08-10T03:13:59.865Z,19.00
2022-08-10T03:16:07.723Z,18.97
2022-08-10T03:18:14.002Z,18.89
2022-08-10T03:20:36.649Z,18.86
2022-08-10T03:22:45.148Z,18.77
2022-08-10T03:24:52.298Z,18.72
2022-08-10T03:26:57.815Z,18.67
2022-08-10T03:29:02.913Z,18.61
2022-08-10T03:31:08.267Z,18.58
2022-08-10T03:33:13.967Z,18.52
2022-08-10T03:35:19.949Z,18.53
2022-08-10T03:37:24.867Z,18.51
2022-08-10T03:39:29.996Z,18.49
2022-08-10T03:41:39.684Z,18.42
2022-08-10T03:43:46.376Z,18.34
2022-08-10T03:45:59.257Z,18.28
2022-08-10T03:48:07.364Z,18.22
2022-08-10T03:50:45.410Z,18.17
2022-08-10T03:52:41.759Z,18.14
2022-08-10T03:54:47.319Z,18.12
2022-08-10T03:56:52.625Z,18.10
2022-08-10T03:58:57.867Z,18.07
2022-08-10T04:01:02.904Z,18.03
2022-08-10T04:03:08.301Z,17.99
2022-08-10T04:05:13.935Z,17.96
2022-08-10T04:07:18.848Z,17.92
2022-08-10T04:09:24.137Z,17.89
2022-08-10T04:11:28.913Z,17.89
2022-08-10T04:13:34.039Z,17.90
2022-08-10T04:15:38.792Z,17.94
2022-08-10T04:17:56.726Z,17.95
2022-08-10T04:20:11.781Z,17.95
2022-08-10T04:22:19.409Z,17.97
2022-08-10T04:24:33.030Z,17.99
2022-08-10T04:26:38.278Z,18.01
2022-08-10T04:28:44.164Z,18.06
2022-08-10T04:30:50.469Z,18.07
2022-08-10T04:32:58.695Z,18.10
2022-08-10T04:35:06.831Z,18.09
2022-08-10T04:37:16.366Z,18.07
2022-08-10T04:39:21.365Z,18.05
2022-08-10T04:41:27.624Z,18.05
2022-08-10T04:43:32.933Z,18.04
2022-08-10T04:45:48.497Z,18.04
2022-08-10T04:48:00.322Z,18.06
2022-08-10T04:50:09.265Z,18.09
2022-08-10T04:52:14.756Z,18.13
2022-08-10T04:54:19.762Z,18.15
2022-08-10T04:56:31.656Z,18.16
2022-08-10T04:58:37.133Z,18.20
2022-08-10T05:00:42.072Z,18.22
2022-08-10T05:02:46.839Z,18.28
2022-08-10T05:04:51.766Z,18.31
2022-08-10T05:06:56.601Z,18.32
2022-08-10T05:09:01.824Z,18.35
2022-08-10T05:11:06.706Z,18.38
2022-08-10T05:13:11.484Z,18.39
2022-08-10T05:15:16.756Z,18.40
2022-08-10T05:17:21.851Z,18.43
2022-08-10T05:20:01.320Z,18.43
2022-08-10T05:22:01.427Z,18.47
2022-08-10T05:24:09.510Z,18.53
2022-08-10T05:26:14.242Z,18.54
2022-08-10T05:28:19.280Z,18.58
2022-08-10T05:30:28.530Z,18.65
2022-08-10T05:32:56.754Z,18.74
2022-08-10T05:34:59.225Z,18.80
2022-08-10T05:37:04.507Z,18.86
2022-08-10T05:39:09.873Z,18.96
2022-08-10T05:41:15.775Z,19.02
2022-08-10T05:43:21.761Z,19.09
2022-08-10T05:45:28.010Z,19.17
2022-08-10T05:48:55.465Z,19.29
2022-08-10T05:49:58.543Z,19.36
2022-08-10T05:52:06.591Z,19.41
2022-08-10T05:54:12.064Z,19.48
2022-08-10T05:56:17.404Z,19.56
2022-08-10T05:58:22.565Z,19.66
2022-08-10T06:00:36.956Z,19.76
2022-08-10T06:02:48.558Z,19.86
2022-08-10T06:04:55.395Z,19.98
2022-08-10T06:07:04.649Z,20.09
2022-08-10T06:09:11.732Z,20.20
2022-08-10T06:12:26.317Z,20.32
2022-08-10T06:13:59.632Z,20.43
2022-08-10T06:16:15.302Z,20.50
2022-08-10T06:18:20.555Z,20.57
2022-08-10T06:20:25.599Z,20.64
2022-08-10T06:22:32.144Z,20.71
2022-08-10T06:24:57.105Z,20.78
2022-08-10T06:27:05.467Z,20.85
2022-08-10T06:29:14.795Z,20.88
2022-08-10T06:31:21.261Z,20.89
2022-08-10T06:33:29.181Z,20.91
2022-08-10T06:35:35.120Z,20.94
2022-08-10T06:37:41.197Z,21.01
2022-08-10T06:39:46.843Z,21.08
2022-08-10T06:42:16.242Z,21.15
2022-08-10T06:44:30.043Z,21.21
2022-08-10T06:46:37.720Z,21.27
2022-08-10T06:48:49.012Z,21.34
2022-08-10T06:50:59.393Z,21.42
2022-08-10T06:53:09.702Z,21.46
2022-08-10T06:55:18.641Z,21.49
2022-08-10T06:57:28.364Z,21.50
2022-08-10T06:59:40.410Z,21.50
2022-08-10T07:01:50.999Z,21.55
2022-08-10T07:04:02.069Z,21.61
2022-08-10T07:06:11.698Z,21.67
2022-08-10T07:08:19.632Z,21.72
2022-08-10T07:10:26.353Z,21.77
2022-08-10T07:12:55.337Z,21.85
2022-08-10T07:15:01.550Z,21.86
2022-08-10T07:17:08.062Z,21.86
2022-08-10T07:19:22.135Z,21.90
2022-08-10T07:21:28.496Z,21.93
2022-08-10T07:23:57.889Z,22.01
2022-08-10T07:26:01.462Z,22.09
2022-08-10T07:28:07.825Z,22.14
2022-08-10T07:30:14.206Z,22.19
2022-08-10T07:32:21.044Z,22.24
2022-08-10T07:34:29.732Z,22.32
2022-08-10T07:36:36.623Z,22.42
2022-08-10T07:38:43.354Z,22.48
2022-08-10T07:40:49.687Z,22.51
2022-08-10T07:43:00.411Z,22.56
2022-08-10T07:45:07.626Z,22.59
2022-08-10T07:47:15.735Z,22.63
2022-08-10T07:49:25.439Z,22.68
2022-08-10T07:51:34.190Z,22.71
2022-08-10T07:53:43.851Z,22.76
2022-08-10T07:56:03.794Z,22.76
2022-08-10T07:58:18.758Z,22.75
2022-08-10T08:00:26.135Z,22.78
2022-08-10T08:02:39.715Z,22.82
2022-08-10T08:04:46.067Z,22.84
2022-08-10T08:06:52.132Z,22.90
2022-08-10T08:08:57.569Z,22.91
2022-08-10T08:11:02.894Z,22.98
2022-08-10T08:13:08.491Z,23.05
2022-08-10T08:16:18.555Z,23.09
2022-08-10T08:17:41.168Z,23.13
2022-08-10T08:19:53.457Z,23.20
2022-08-10T08:24:04.875Z,23.29
2022-08-10T08:24:33.475Z,23.37
2022-08-10T08:26:41.216Z,23.38
2022-08-10T08:28:47.495Z,23.47
2022-08-10T08:30:53.368Z,23.52
2022-08-10T08:32:59.313Z,23.58
2022-08-10T08:35:08.834Z,23.67
2022-08-10T08:38:26.530Z,23.72
2022-08-10T08:39:40.891Z,23.75
2022-08-10T08:42:01.394Z,23.83
2022-08-10T08:44:15.299Z,23.92
2022-08-10T08:46:57.072Z,24.01
2022-08-10T08:50:05.170Z,24.15
2022-08-10T08:52:09.579Z,24.28
2022-08-10T08:54:34.065Z,24.34
2022-08-10T08:56:50.400Z,24.36
2022-08-10T08:59:11.407Z,24.39
2022-08-10T09:02:00.759Z,24.45
2022-08-10T09:04:30.742Z,24.47
2022-08-10T09:06:52.528Z,24.53
2022-08-10T09:09:29.385Z,24.59
2022-08-10T09:11:50.781Z,24.61
2022-08-10T09:14:01.681Z,24.70
2022-08-10T09:16:16.375Z,24.72
2022-08-10T09:18:25.414Z,24.79
2022-08-10T09:20:37.480Z,24.91
2022-08-10T09:22:57.142Z,24.99
2022-08-10T09:25:13.437Z,25.01
2022-08-10T09:27:21.651Z,25.04
2022-08-10T09:29:28.437Z,25.10
2022-08-10T09:31:55.839Z,25.11
2022-08-10T09:36:22.615Z,25.11
2022-08-10T09:36:56.001Z,25.17
2022-08-10T09:40:48.499Z,25.20
2022-08-10T09:41:56.102Z,25.26
2022-08-10T09:44:11.700Z,25.26
2022-08-10T09:46:27.681Z,25.27
2022-08-10T09:48:41.452Z,25.29
2022-08-10T09:53:44.049Z,25.36
2022-08-10T09:56:18.395Z,25.41
2022-08-10T09:58:40.369Z,25.45
2022-08-10T10:00:52.799Z,25.50
2022-08-10T10:03:23.997Z,25.54
2022-08-10T10:05:50.221Z,25.57
2022-08-10T10:08:02.958Z,25.59
2022-08-10T10:10:12.662Z,25.60
2022-08-10T10:12:26.536Z,25.60
2022-08-10T10:14:46.502Z,25.63
2022-08-10T10:17:05.925Z,25.73
2022-08-10T10:19:24.980Z,25.83
2022-08-10T10:21:55.852Z,25.88
2022-08-10T10:24:20.188Z,25.94
2022-08-10T10:26:38.221Z,26.05
2022-08-10T10:29:37.412Z,26.07
2022-08-10T10:31:35.966Z,26.13
2022-08-10T10:33:51.711Z,26.18
2022-08-10T10:35:57.180Z,26.24
2022-08-10T10:38:04.360Z,26.33
2022-08-10T10:40:12.021Z,26.43
2022-08-10T10:42:44.940Z,26.46
2022-08-10T10:45:00.263Z,26.53
2022-08-10T10:47:20.543Z,26.60
2022-08-10T10:49:36.230Z,26.60
2022-08-10T10:51:48.258Z,26.60
2022-08-10T10:54:05.051Z,26.58
2022-08-10T10:56:20.603Z,26.59
2022-08-10T10:58:34.158Z,26.67
2022-08-10T11:00:49.152Z,26.73
2022-08-10T11:03:06.325Z,26.77
2022-08-10T11:05:19.150Z,26.82
2022-08-10T11:07:31.889Z,26.83
2022-08-10T11:10:05.433Z,26.87
2022-08-10T11:12:18.861Z,26.88
2022-08-10T11:14:34.738Z,26.85
2022-08-10T11:16:45.901Z,26.86
2022-08-10T11:19:10.627Z,26.89
2022-08-10T11:21:24.057Z,26.96
2022-08-10T11:23:36.734Z,27.00
2022-08-10T11:25:46.667Z,27.00
2022-08-10T11:27:57.384Z,27.04
2022-08-10T11:30:07.564Z,27.09
2022-08-10T11:32:21.215Z,27.14
2022-08-10T11:34:47.583Z,27.17
2022-08-10T11:37:03.410Z,27.21
2022-08-10T11:39:19.686Z,27.25
2022-08-10T11:42:12.383Z,27.29
2022-08-10T11:44:15.021Z,27.32
2022-08-10T11:46:28.652Z,27.34
2022-08-10T11:48:53.657Z,27.33
2022-08-10T11:51:05.001Z,27.32
2022-08-10T11:53:17.286Z,27.40
2022-08-10T11:55:25.148Z,27.53
2022-08-10T11:57:54.047Z,27.64
2022-08-10T11:59:59.155Z,27.67
2022-08-10T12:02:06.530Z,27.65
2022-08-10T12:04:14.669Z,27.67
2022-08-10T12:06:39.555Z,27.66
2022-08-10T12:10:10.939Z,27.57
2022-08-10T12:11:24.182Z,27.58
2022-08-10T12:13:37.737Z,27.63
2022-08-10T12:15:51.764Z,27.65
2022-08-10T12:18:00.960Z,27.74
2022-08-10T12:20:10.723Z,27.82
2022-08-10T12:22:20.814Z,27.85
2022-08-10T12:24:36.730Z,27.75
2022-08-10T12:26:49.812Z,27.63
2022-08-10T12:29:01.428Z,27.59
2022-08-10T12:31:10.566Z,27.52
2022-08-10T12:33:23.479Z,27.51
2022-08-10T12:35:36.411Z,27.56
2022-08-10T12:38:00.158Z,27.61
2022-08-10T12:43:02.587Z,27.86
2022-08-10T12:45:18.573Z,27.93
2022-08-10T12:47:38.251Z,27.99
2022-08-10T12:50:31.426Z,28.06
2022-08-10T12:52:20.370Z,28.09
2022-08-10T12:54:32.708Z,28.12
2022-08-10T12:56:42.904Z,28.20
2022-08-10T12:58:57.219Z,28.24
2022-08-10T13:01:22.608Z,28.23
2022-08-10T13:04:21.396Z,28.23
2022-08-10T13:06:02.409Z,28.26
2022-08-10T13:08:26.994Z,28.32
2022-08-10T13:10:33.261Z,28.35
2022-08-10T13:12:41.325Z,28.37
2022-08-10T13:14:50.815Z,28.38
2022-08-10T13:16:58.199Z,28.40
2022-08-10T13:19:04.894Z,28.34
2022-08-10T13:21:20.819Z,28.23
2022-08-10T13:23:29.168Z,28.16
2022-08-10T13:25:39.290Z,28.11
2022-08-10T13:28:00.657Z,28.11
2022-08-10T13:30:11.437Z,28.13
2022-08-10T13:32:22.552Z,28.23
2022-08-10T13:34:43.591Z,28.28
2022-08-10T13:36:53.130Z,28.35
2022-08-10T13:39:00.012Z,28.35
2022-08-10T13:41:05.570Z,28.29
2022-08-10T13:43:11.567Z,28.20
2022-08-10T13:45:19.265Z,28.15
2022-08-10T13:47:48.987Z,28.15
2022-08-10T13:49:59.517Z,28.12
2022-08-10T13:52:15.053Z,28.08
2022-08-10T13:54:20.338Z,28.06
2022-08-10T13:56:27.151Z,28.08
2022-08-10T13:58:33.711Z,28.14
2022-08-10T14:00:41.318Z,28.18
2022-08-10T14:02:52.222Z,28.20
2022-08-10T14:04:58.607Z,28.26
2022-08-10T14:07:04.469Z,28.32
2022-08-10T14:09:12.978Z,28.38
2022-08-10T14:11:19.323Z,28.37
2022-08-10T14:13:26.828Z,28.41
2022-08-10T14:15:35.129Z,28.44
2022-08-10T14:17:45.008Z,28.47
2022-08-10T14:19:59.227Z,28.50
2022-08-10T14:22:04.483Z,28.47
2022-08-10T14:24:21.542Z,28.50
2022-08-10T14:26:28.592Z,28.49
2022-08-10T14:28:39.500Z,28.42
2022-08-10T14:30:46.855Z,28.34
2022-08-10T14:32:52.933Z,28.28
2022-08-10T14:36:18.754Z,28.24
2022-08-10T14:37:38.017Z,28.22
2022-08-10T14:39:47.494Z,28.23
2022-08-10T14:42:03.317Z,28.21
2022-08-10T14:44:14.256Z,28.19
2022-08-10T14:46:22.386Z,28.18
2022-08-10T14:48:33.029Z,28.23
2022-08-10T14:50:39.604Z,28.25
2022-08-10T14:53:05.566Z,28.20
2022-08-10T14:55:19.344Z,28.18
2022-08-10T14:58:19.422Z,28.24
2022-08-10T15:00:25.418Z,28.29
2022-08-10T15:02:40.695Z,28.31
2022-08-10T15:04:53.059Z,28.36
2022-08-10T15:07:02.781Z,28.41
2022-08-10T15:09:19.522Z,28.43
2022-08-10T15:12:14.970Z,28.47
2022-08-10T15:14:15.191Z,28.50
2022-08-10T15:16:17.796Z,28.58
2022-08-10T15:18:26.500Z,28.58
2022-08-10T15:20:35.732Z,28.62
2022-08-10T15:22:43.905Z,28.63
2022-08-10T15:24:53.394Z,28.61
2022-08-10T15:27:04.023Z,28.54
2022-08-10T15:29:25.534Z,28.42
2022-08-10T15:31:33.611Z,28.37
2022-08-10T15:33:57.906Z,28.32
2022-08-10T15:36:11.269Z,28.29
2022-08-10T15:38:21.996Z,28.31
2022-08-10T15:40:31.117Z,28.32
2022-08-10T15:42:41.098Z,28.29
2022-08-10T15:44:55.198Z,28.29
2022-08-10T15:47:04.054Z,28.26
2022-08-10T15:49:20.607Z,28.22
2022-08-10T15:51:54.145Z,28.23
2022-08-10T15:54:06.013Z,28.26
2022-08-10T15:56:28.275Z,28.23
2022-08-10T15:58:39.770Z,28.22
2022-08-10T16:00:50.052Z,28.21
2022-08-10T16:03:00.753Z,28.18
2022-08-10T16:05:11.402Z,28.08
2022-08-10T16:07:20.750Z,28.02
2022-08-10T16:10:24.842Z,27.96
2022-08-10T16:12:01.519Z,27.86
2022-08-10T16:14:14.699Z,27.76
2022-08-10T16:16:19.906Z,27.72
2022-08-10T16:18:29.009Z,27.74
2022-08-10T16:20:53.024Z,27.74
2022-08-10T16:23:04.752Z,27.75
2022-08-10T16:25:15.276Z,27.74
2022-08-10T16:27:23.976Z,27.71
2022-08-10T16:29:29.647Z,27.67
2022-08-10T16:31:37.452Z,27.64
2022-08-10T16:33:53.801Z,27.60
2022-08-10T16:36:03.366Z,27.56
2022-08-10T16:38:10.080Z,27.53
2022-08-10T16:40:17.957Z,27.51
2022-08-10T16:42:27.089Z,27.48
2022-08-10T16:44:36.895Z,27.47
2022-08-10T16:46:46.371Z,27.45
2022-08-10T16:48:53.512Z,27.44
2022-08-10T16:51:01.167Z,27.42
2022-08-10T16:53:11.011Z,27.39
2022-08-10T16:55:27.095Z,27.36
2022-08-10T16:57:46.299Z,27.26
2022-08-10T16:59:56.213Z,27.20
2022-08-10T17:02:03.101Z,27.17
2022-08-10T17:04:10.458Z,27.11
2022-08-10T17:06:21.256Z,27.05
2022-08-10T17:08:28.262Z,27.01
2022-08-10T17:10:34.415Z,26.98
2022-08-10T17:12:41.470Z,26.96
2022-08-10T17:14:46.795Z,26.94
2022-08-10T17:17:08.386Z,26.90
2022-08-10T17:19:17.006Z,26.86
2022-08-10T17:21:24.572Z,26.84
2022-08-10T17:23:35.272Z,26.82
2022-08-10T17:25:48.773Z,26.79
2022-08-10T17:28:04.844Z,26.76
2022-08-10T17:30:18.890Z,26.72
2022-08-10T17:32:44.470Z,26.69
2022-08-10T17:34:52.900Z,26.66
2022-08-10T17:37:03.406Z,26.66
2022-08-10T17:39:12.719Z,26.63
2022-08-10T17:41:21.522Z,26.60
2022-08-10T17:43:59.297Z,26.54
2022-08-10T17:45:54.120Z,26.48
2022-08-10T17:48:03.679Z,26.43
2022-08-10T17:50:10.095Z,26.41
2022-08-10T17:52:21.418Z,26.38
2022-08-10T17:54:32.754Z,26.36
2022-08-10T17:56:38.517Z,26.31
2022-08-10T17:58:53.995Z,26.29
2022-08-10T18:01:38.126Z,26.23
2022-08-10T18:03:29.537Z,26.16
2022-08-10T18:05:35.025Z,26.11
2022-08-10T18:07:48.173Z,26.06
2022-08-10T18:09:55.017Z,26.01
2022-08-10T18:12:10.921Z,25.96
2022-08-10T18:14:24.114Z,25.90
2022-08-10T18:16:30.896Z,25.85
2022-08-10T18:18:37.140Z,25.80
2022-08-10T18:20:43.309Z,25.74
2022-08-10T18:22:49.674Z,25.69
2022-08-10T18:24:56.653Z,25.64
2022-08-10T18:27:05.911Z,25.58
2022-08-10T18:29:18.881Z,25.54
2022-08-10T18:31:26.226Z,25.49
2022-08-10T18:33:35.063Z,25.45
2022-08-10T18:35:40.405Z,25.41
2022-08-10T18:37:49.361Z,25.37
2022-08-10T18:39:59.111Z,25.33
2022-08-10T18:42:11.841Z,25.30
2022-08-10T18:44:20.415Z,25.26
2022-08-10T18:46:28.689Z,25.22
2022-08-10T18:48:53.076Z,25.17
2022-08-10T18:51:05.084Z,25.14
2022-08-10T18:53:17.767Z,25.09
2022-08-10T18:55:27.034Z,25.06
2022-08-10T18:57:58.237Z,25.02
2022-08-10T19:00:12.663Z,24.96
2022-08-10T19:02:37.137Z,24.91
2022-08-10T19:05:01.473Z,24.87
2022-08-10T19:07:33.687Z,24.82
2022-08-10T19:10:03.453Z,24.79
2022-08-10T19:12:31.655Z,24.74
2022-08-10T19:14:42.443Z,24.73
2022-08-10T19:17:01.555Z,24.70
2022-08-10T19:19:22.538Z,24.68
2022-08-10T19:21:32.054Z,24.64
2022-08-10T19:23:46.525Z,24.62
2022-08-10T19:26:42.782Z,24.57
2022-08-10T19:28:29.924Z,24.53
2022-08-10T19:30:46.335Z,24.47
2022-08-10T19:33:05.900Z,24.42
2022-08-10T19:35:22.432Z,24.37
2022-08-10T19:37:35.244Z,24.32
2022-08-10T19:39:53.198Z,24.29
2022-08-10T19:42:11.436Z,24.25
2022-08-10T19:44:27.513Z,24.20
2022-08-10T19:46:44.478Z,24.15
2022-08-10T19:49:00.569Z,24.12
2022-08-10T19:51:14.041Z,24.09
2022-08-10T19:53:26.872Z,24.06
2022-08-10T19:55:41.150Z,24.02
2022-08-10T19:57:56.569Z,24.00
2022-08-10T20:00:16.759Z,23.98
2022-08-10T20:02:30.259Z,23.93
2022-08-10T20:04:53.053Z,23.91
2022-08-10T20:07:08.453Z,23.87
2022-08-10T20:09:18.586Z,23.85
2022-08-10T20:11:46.236Z,23.83
2022-08-10T20:13:57.321Z,23.79
2022-08-10T20:16:08.472Z,23.77
2022-08-10T20:18:21.947Z,23.75
2022-08-10T20:20:31.884Z,23.72
2022-08-10T20:22:45.797Z,23.69
2022-08-10T20:24:56.310Z,23.66
2022-08-10T20:27:58.861Z,23.65
2022-08-10T20:29:58.996Z,23.61
2022-08-10T20:32:04.568Z,23.58
2022-08-10T20:34:19.386Z,23.54
2022-08-10T20:36:29.609Z,23.53
2022-08-10T20:38:43.410Z,23.51
2022-08-10T20:41:03.065Z,23.48
2022-08-10T20:43:20.182Z,23.47
2022-08-10T20:45:37.405Z,23.45
2022-08-10T20:47:59.375Z,23.42
2022-08-10T20:50:15.952Z,23.39
2022-08-10T20:52:24.904Z,23.37
2022-08-10T20:54:34.006Z,23.35
2022-08-10T20:56:48.882Z,23.32
2022-08-10T20:59:15.186Z,23.29
2022-08-10T21:02:05.966Z,23.26
2022-08-10T21:04:05.955Z,23.24
2022-08-10T21:06:42.818Z,23.20
2022-08-10T21:09:00.846Z,23.18
2022-08-10T21:11:14.352Z,23.17
2022-08-10T21:13:40.665Z,23.13
2022-08-10T21:16:00.746Z,23.10
2022-08-10T21:18:20.407Z,23.05
2022-08-10T21:20:47.131Z,23.04
2022-08-10T21:22:56.483Z,23.01
2022-08-10T21:25:03.831Z,22.99
2022-08-10T21:27:27.512Z,22.99
2022-08-10T21:29:55.886Z,22.95
2022-08-10T21:32:14.024Z,22.93
2022-08-10T21:34:35.373Z,22.89
2022-08-10T21:36:51.319Z,22.86
2022-08-10T21:39:09.997Z,22.82
2022-08-10T21:41:56.355Z,22.80
2022-08-10T21:44:16.412Z,22.78
2022-08-10T21:46:54.650Z,22.74
2022-08-10T21:49:05.760Z,22.71
2022-08-10T21:51:24.250Z,22.68
2022-08-10T21:53:44.899Z,22.63
2022-08-10T21:55:58.601Z,22.60
2022-08-10T21:58:11.686Z,22.56
2022-08-10T22:02:49.735Z,22.50
2022-08-10T22:05:00.636Z,22.48
2022-08-10T22:09:42.795Z,22.44
2022-08-10T22:11:55.753Z,22.39
2022-08-10T22:14:01.333Z,22.37
2022-08-10T22:16:20.941Z,22.35
2022-08-10T22:18:31.503Z,22.33
2022-08-10T22:20:39.615Z,22.30
2022-08-10T22:22:56.003Z,22.26
2022-08-10T22:25:17.074Z,22.23
2022-08-10T22:27:56.540Z,22.21
2022-08-10T22:30:00.164Z,22.17
2022-08-10T22:31:25.783Z,22.47
2022-08-10T22:32:14.166Z,22.14
2022-08-10T22:34:49.573Z,22.12
2022-08-10T22:37:10.955Z,22.09
2022-08-10T22:40:08.125Z,22.05
2022-08-10T22:41:52.785Z,22.00
2022-08-10T22:44:02.643Z,21.97
2022-08-10T22:46:17.451Z,21.94
2022-08-10T22:48:25.075Z,21.89
2022-08-10T22:50:31.799Z,21.87
2022-08-10T22:52:58.919Z,21.84
2022-08-10T22:55:16.651Z,21.81
2022-08-10T22:57:21.775Z,21.78
2022-08-10T22:59:31.955Z,21.79
2022-08-10T23:01:41.401Z,21.78
2022-08-10T23:04:13.063Z,21.77
2022-08-10T23:06:26.179Z,21.74
2022-08-10T23:08:40.802Z,21.72
2022-08-10T23:10:47.573Z,21.70
2022-08-10T23:12:58.263Z,21.67
2022-08-10T23:15:05.861Z,21.66
2022-08-10T23:17:16.221Z,21.64
2022-08-10T23:19:25.608Z,21.62
2022-08-10T23:22:01.305Z,21.59
2022-08-10T23:24:01.249Z,21.55
2022-08-10T23:26:09.041Z,21.53
2022-08-10T23:28:19.344Z,21.50
2022-08-10T23:30:51.479Z,21.47
2022-08-10T23:33:01.293Z,21.44
2022-08-10T23:36:13.064Z,21.42
2022-08-10T23:37:39.479Z,21.39
2022-08-10T23:39:48.325Z,21.38
2022-08-10T23:41:57.008Z,21.34
2022-08-10T23:44:04.462Z,21.33
2022-08-10T23:46:11.317Z,21.30
2022-08-10T23:48:22.329Z,21.26
2022-08-10T23:50:28.580Z,21.24
2022-08-10T23:52:35.214Z,21.23
2022-08-10T23:54:47.360Z,21.20
2022-08-10T23:56:56.526Z,21.18
2022-08-10T23:59:13.362Z,21.19
